Milpitas, California
Current Conditions -  °F | °C
As of 3:53 PM on Tuesday 25 Nov 2014 (Local Time) from KSJC Reporting Station
Scattered Clouds Scattered Clouds  
Wind Chill: 65°   Ceiling: Unl
Heat Index: 65°   Visibility: 10mi
Dew Point: 41°   Wind: 5mph
Humidity: 42%   Direction: 290°WNW
Pressure: 30.35"   Gusts: NA
Location:  37.43°N, 121.89°W
Report Text: KSJC 252353Z 29004KT 10SM FEW090 SCT130 SCT200 18/05 A3035 RMK AO2 SLP278 T01830050 10194 20122 56012
Loading
Personal Weather Stations






























Interactive Weather Map New forecast layout! Learn more

10-Day Weather Forecast

Advertisements
Track Severe Weather on mobile